createdAt,value
2022-11-15T00:00:47.398Z,7.50
2022-11-15T00:03:23.623Z,12.65
2022-11-15T00:05:50.411Z,7.60
2022-11-15T00:08:17.181Z,9.00
2022-11-15T00:10:44.032Z,8.82
2022-11-15T00:13:13.127Z,6.35
2022-11-15T00:15:41.468Z,9.50
2022-11-15T00:18:13.658Z,10.23
2022-11-15T00:20:40.558Z,10.90
2022-11-15T00:23:07.415Z,8.52
2022-11-15T00:25:34.374Z,10.93
2022-11-15T00:28:01.802Z,7.60
2022-11-15T00:30:28.878Z,10.60
2022-11-15T00:32:56.418Z,8.15
2022-11-15T00:35:23.152Z,9.60
2022-11-15T00:37:49.714Z,9.35
2022-11-15T00:40:16.380Z,8.35
2022-11-15T00:42:43.109Z,10.77
2022-11-15T00:45:10.497Z,7.85
2022-11-15T00:47:36.973Z,8.88
2022-11-15T00:50:04.034Z,9.02
2022-11-15T00:52:30.421Z,9.13
2022-11-15T00:54:56.805Z,8.05
2022-11-15T00:57:23.245Z,9.95
2022-11-15T00:59:49.652Z,8.68
2022-11-15T01:02:16.067Z,9.48
2022-11-15T01:04:42.508Z,9.82
2022-11-15T01:07:08.942Z,9.27
2022-11-15T01:09:35.395Z,11.77
2022-11-15T01:12:01.928Z,8.90
2022-11-15T01:14:28.437Z,15.23
2022-11-15T01:16:54.881Z,10.77
2022-11-15T01:19:21.330Z,9.13
2022-11-15T01:21:50.243Z,8.00
2022-11-15T01:24:16.679Z,10.25
2022-11-15T01:26:43.076Z,11.32
2022-11-15T01:29:09.503Z,9.85
2022-11-15T01:31:35.936Z,18.80
2022-11-15T01:34:02.487Z,10.80
2022-11-15T01:36:28.930Z,12.25
2022-11-15T01:38:56.718Z,8.25
2022-11-15T01:41:27.238Z,10.18
2022-11-15T01:43:56.803Z,7.88
2022-11-15T01:46:34.414Z,10.32
2022-11-15T01:49:06.494Z,10.95
2022-11-15T01:51:34.350Z,8.13
2022-11-15T01:54:06.060Z,6.75
2022-11-15T01:56:41.099Z,12.38
2022-11-15T01:59:09.460Z,7.38
2022-11-15T02:01:36.101Z,10.15
2022-11-15T02:04:13.937Z,7.40
2022-11-15T02:06:42.006Z,9.90
2022-11-15T02:09:08.490Z,10.65
2022-11-15T02:11:35.121Z,10.52
2022-11-15T02:14:03.347Z,10.13
2022-11-15T02:17:03.066Z,8.02
2022-11-15T02:19:32.143Z,7.22
2022-11-15T02:22:11.420Z,8.02
2022-11-15T02:25:11.107Z,10.00
2022-11-15T02:28:16.585Z,9.90
2022-11-15T02:30:54.813Z,8.23
2022-11-15T02:33:50.986Z,10.90
2022-11-15T02:36:36.743Z,11.63
2022-11-15T02:39:23.922Z,10.25
2022-11-15T02:41:58.629Z,12.40
2022-11-15T02:44:32.634Z,13.20
2022-11-15T02:47:15.182Z,12.52
2022-11-15T02:49:51.144Z,12.60
2022-11-15T02:52:18.495Z,13.73
2022-11-15T02:54:55.216Z,18.20
2022-11-15T02:57:29.281Z,14.15
2022-11-15T03:00:10.150Z,12.85
2022-11-15T03:02:57.609Z,12.63
2022-11-15T03:05:50.534Z,8.13
2022-11-15T03:08:23.086Z,10.05
2022-11-15T03:11:09.376Z,11.23
2022-11-15T03:13:45.078Z,9.38
2022-11-15T03:16:19.099Z,11.27
2022-11-15T03:18:52.763Z,11.23
2022-11-15T03:21:22.724Z,9.82
2022-11-15T03:23:50.983Z,8.75
2022-11-15T03:26:20.341Z,8.88
2022-11-15T03:29:04.802Z,11.13
2022-11-15T03:31:50.853Z,9.20
2022-11-15T03:34:28.483Z,12.38
2022-11-15T03:36:55.118Z,13.85
2022-11-15T03:39:22.858Z,10.48
2022-11-15T03:41:59.414Z,8.85
2022-11-15T03:44:46.599Z,8.93
2022-11-15T03:47:32.454Z,10.65
2022-11-15T03:50:20.175Z,11.32
2022-11-15T03:52:48.671Z,12.00
2022-11-15T03:55:19.899Z,12.27
2022-11-15T03:57:48.693Z,10.93
2022-11-15T04:00:15.674Z,10.45
2022-11-15T04:02:42.072Z,9.70
2022-11-15T04:05:08.934Z,12.23
2022-11-15T04:07:35.416Z,14.82
2022-11-15T04:10:04.951Z,10.38
2022-11-15T04:12:32.581Z,10.27
2022-11-15T04:15:10.942Z,12.77
2022-11-15T04:17:57.493Z,10.32
2022-11-15T04:20:50.430Z,11.25
2022-11-15T04:23:42.252Z,13.82
2022-11-15T04:26:22.005Z,12.35
2022-11-15T04:29:07.104Z,12.30
2022-11-15T04:31:33.670Z,11.52
2022-11-15T04:34:00.235Z,10.30
2022-11-15T04:36:45.050Z,14.40
2022-11-15T04:39:11.453Z,12.40
2022-11-15T04:41:37.904Z,14.35
2022-11-15T04:44:04.347Z,14.30
2022-11-15T04:46:30.962Z,12.02
2022-11-15T04:48:59.235Z,11.88
2022-11-15T04:51:26.598Z,12.00
2022-11-15T04:53:53.345Z,12.75
2022-11-15T04:56:20.108Z,13.05
2022-11-15T04:58:46.548Z,12.60
2022-11-15T05:01:17.626Z,12.13
2022-11-15T05:04:03.467Z,11.38
2022-11-15T05:06:30.400Z,9.95
2022-11-15T05:08:57.936Z,13.65
2022-11-15T05:11:24.717Z,12.77
2022-11-15T05:13:51.360Z,13.55
2022-11-15T05:16:17.752Z,11.60
2022-11-15T05:18:44.226Z,14.52
2022-11-15T05:21:13.523Z,15.02
2022-11-15T05:23:40.899Z,12.50
2022-11-15T05:26:09.522Z,13.32
2022-11-15T05:28:37.478Z,11.40
2022-11-15T05:31:05.384Z,10.10
2022-11-15T05:33:32.885Z,11.15
2022-11-15T05:36:08.795Z,13.50
2022-11-15T05:38:35.323Z,19.80
2022-11-15T05:41:03.274Z,14.57
2022-11-15T05:43:32.795Z,20.33
2022-11-15T05:46:00.537Z,13.75
2022-11-15T05:48:27.032Z,12.00
2022-11-15T05:50:53.895Z,13.60
2022-11-15T05:53:23.995Z,13.52
2022-11-15T05:55:50.428Z,12.90
2022-11-15T05:58:17.051Z,14.82
2022-11-15T06:00:44.285Z,14.77
2022-11-15T06:03:11.445Z,16.20
2022-11-15T06:05:37.891Z,12.70
2022-11-15T06:08:04.505Z,14.50
2022-11-15T06:10:30.935Z,13.48
2022-11-15T06:13:04.911Z,12.57
2022-11-15T06:15:33.034Z,14.45
2022-11-15T06:18:00.069Z,11.68
2022-11-15T06:20:28.066Z,12.18
2022-11-15T06:23:01.906Z,12.90
2022-11-15T06:25:29.771Z,14.70
2022-11-15T06:27:57.888Z,14.73
2022-11-15T06:30:26.319Z,11.27
2022-11-15T06:32:59.032Z,13.60
2022-11-15T06:35:25.443Z,12.38
2022-11-15T06:37:51.898Z,13.07
2022-11-15T06:40:18.304Z,15.55
2022-11-15T06:42:44.707Z,11.20
2022-11-15T06:45:11.143Z,13.57
2022-11-15T06:47:45.651Z,13.07
2022-11-15T06:50:12.114Z,14.18
2022-11-15T06:52:38.567Z,12.05
2022-11-15T06:55:05.432Z,13.40
2022-11-15T06:57:33.201Z,11.82
2022-11-15T06:59:59.716Z,12.43
2022-11-15T07:02:26.274Z,20.52
2022-11-15T07:04:52.683Z,13.32
2022-11-15T07:07:19.153Z,11.90
2022-11-15T07:09:45.562Z,9.48
2022-11-15T07:12:11.956Z,12.25
2022-11-15T07:14:38.382Z,16.90
2022-11-15T07:17:06.052Z,14.20
2022-11-15T07:19:32.955Z,15.15
2022-11-15T07:21:59.367Z,15.43
2022-11-15T07:24:25.764Z,12.80
2022-11-15T07:26:52.256Z,11.18
2022-11-15T07:29:18.850Z,12.50
2022-11-15T07:31:45.269Z,12.93
2022-11-15T07:34:11.714Z,12.30
2022-11-15T07:36:38.119Z,11.07
2022-11-15T07:39:04.570Z,15.82
2022-11-15T07:41:30.985Z,12.32
2022-11-15T07:43:58.480Z,16.73
2022-11-15T07:46:24.925Z,14.23
2022-11-15T07:48:51.344Z,15.45
2022-11-15T07:51:18.070Z,14.02
2022-11-15T07:53:44.721Z,15.00
2022-11-15T07:56:11.294Z,19.08
2022-11-15T07:58:37.887Z,12.63
2022-11-15T08:01:06.296Z,17.98
2022-11-15T08:03:34.449Z,13.20
2022-11-15T08:06:01.526Z,18.77
2022-11-15T08:08:28.381Z,12.90
2022-11-15T08:10:55.095Z,14.98
2022-11-15T08:13:22.271Z,16.50
2022-11-15T08:15:52.158Z,16.08
2022-11-15T08:18:21.313Z,14.02
2022-11-15T08:20:47.771Z,12.32
2022-11-15T08:23:14.243Z,13.43
2022-11-15T08:25:40.823Z,11.82
2022-11-15T08:28:08.699Z,14.85
2022-11-15T08:30:37.854Z,14.85
2022-11-15T08:33:04.526Z,12.75
2022-11-15T08:35:31.371Z,13.25
2022-11-15T08:37:57.765Z,13.27
2022-11-15T08:40:24.717Z,10.80
2022-11-15T08:42:51.168Z,10.98
2022-11-15T08:45:17.731Z,10.93
2022-11-15T08:47:49.692Z,10.70
2022-11-15T08:50:19.720Z,10.52
2022-11-15T08:52:46.322Z,10.40
2022-11-15T08:55:12.738Z,9.65
2022-11-15T08:57:39.194Z,13.73
2022-11-15T09:00:06.190Z,13.60
2022-11-15T09:02:32.673Z,12.40
2022-11-15T09:04:59.096Z,10.07
2022-11-15T09:07:25.658Z,11.27
2022-11-15T09:09:52.130Z,12.60
2022-11-15T09:12:18.528Z,13.63
2022-11-15T09:14:44.917Z,11.43
2022-11-15T09:17:11.361Z,11.38
2022-11-15T09:19:38.507Z,11.75
2022-11-15T09:22:08.799Z,14.75
2022-11-15T09:24:35.896Z,12.18
2022-11-15T09:27:02.378Z,12.25
2022-11-15T09:29:29.019Z,12.27
2022-11-15T09:31:55.746Z,13.23
2022-11-15T09:34:22.163Z,12.30
2022-11-15T09:36:48.570Z,15.07
2022-11-15T09:39:15.017Z,17.33
2022-11-15T09:41:51.510Z,13.25
2022-11-15T09:44:41.968Z,14.25
2022-11-15T09:47:50.554Z,12.65
2022-11-15T09:50:33.098Z,14.68
2022-11-15T09:52:59.818Z,12.45
2022-11-15T09:55:35.898Z,15.55
2022-11-15T09:58:16.818Z,13.45
2022-11-15T10:00:49.616Z,12.40
2022-11-15T10:03:27.225Z,15.10
2022-11-15T10:05:57.987Z,13.57
2022-11-15T10:08:45.471Z,16.85
2022-11-15T10:11:37.661Z,16.05
2022-11-15T10:14:19.895Z,16.80
2022-11-15T10:17:00.130Z,14.30
2022-11-15T10:19:29.490Z,14.40
2022-11-15T10:22:04.888Z,15.82
2022-11-15T10:24:36.362Z,16.35
2022-11-15T10:27:10.766Z,15.60
2022-11-15T10:29:37.264Z,14.65
2022-11-15T10:32:03.754Z,15.65
2022-11-15T10:34:30.149Z,16.15
2022-11-15T10:36:58.981Z,15.05
2022-11-15T10:39:26.327Z,13.85
2022-11-15T10:41:52.815Z,14.27
2022-11-15T10:44:26.807Z,14.73
2022-11-15T10:46:56.252Z,19.45
2022-11-15T10:49:30.399Z,14.00
2022-11-15T10:51:58.885Z,17.85
2022-11-15T10:54:42.510Z,11.88
2022-11-15T10:57:16.880Z,17.77
2022-11-15T10:59:58.439Z,15.35
2022-11-15T11:02:28.573Z,14.45
2022-11-15T11:04:55.185Z,15.20
2022-11-15T11:07:24.984Z,15.55
2022-11-15T11:10:50.292Z,12.88
2022-11-15T11:13:34.900Z,14.75
2022-11-15T11:16:39.194Z,16.50
2022-11-15T11:19:27.168Z,14.77
2022-11-15T11:22:15.937Z,16.17
2022-11-15T11:24:46.504Z,12.63
2022-11-15T11:27:56.804Z,15.68
2022-11-15T11:30:33.032Z,13.05
2022-11-15T11:33:04.706Z,12.15
2022-11-15T11:35:45.923Z,13.20
2022-11-15T11:38:39.419Z,12.85
2022-11-15T11:41:19.579Z,13.80
2022-11-15T11:44:08.550Z,11.27
2022-11-15T11:46:37.974Z,10.20
2022-11-15T11:49:11.236Z,12.38
2022-11-15T11:51:44.458Z,10.02
2022-11-15T11:54:15.419Z,9.82
2022-11-15T11:56:44.957Z,9.52
2022-11-15T11:59:29.559Z,9.73
2022-11-15T12:01:56.460Z,11.02
2022-11-15T12:04:31.727Z,14.20
2022-11-15T12:07:02.976Z,9.40
2022-11-15T12:09:52.747Z,13.43
2022-11-15T12:12:40.216Z,12.43
2022-11-15T12:15:09.464Z,11.80
2022-11-15T12:17:38.009Z,11.30
2022-11-15T12:20:15.315Z,9.52
2022-11-15T12:22:48.196Z,10.60
2022-11-15T12:25:20.522Z,10.98
2022-11-15T12:27:57.770Z,10.63
2022-11-15T12:30:26.753Z,10.02
2022-11-15T12:32:59.362Z,10.90
2022-11-15T12:35:35.935Z,9.27
2022-11-15T12:38:03.142Z,8.50
2022-11-15T12:40:38.492Z,8.38
2022-11-15T12:43:31.966Z,7.40
2022-11-15T12:46:05.259Z,8.73
2022-11-15T12:48:38.271Z,8.02
2022-11-15T12:51:05.668Z,10.50
2022-11-15T12:53:33.959Z,9.20
2022-11-15T12:56:20.764Z,7.72
2022-11-15T12:58:58.911Z,8.88
2022-11-15T13:01:31.284Z,10.82
2022-11-15T13:04:22.436Z,9.20
2022-11-15T13:06:53.511Z,8.82
2022-11-15T13:09:29.104Z,10.30
2022-11-15T13:12:00.647Z,12.68
2022-11-15T13:14:49.035Z,9.00
2022-11-15T13:17:26.390Z,7.95
2022-11-15T13:19:59.763Z,9.20
2022-11-15T13:25:20.716Z,9.10
2022-11-15T13:27:51.613Z,11.13
2022-11-15T13:30:28.128Z,8.05
2022-11-15T13:32:54.833Z,8.02
2022-11-15T13:35:26.892Z,8.38
2022-11-15T13:37:55.447Z,8.25
2022-11-15T13:40:35.829Z,8.57
2022-11-15T13:43:29.902Z,9.13
2022-11-15T13:46:17.300Z,9.88
2022-11-15T13:48:45.861Z,9.88
2022-11-15T13:51:31.017Z,8.10
2022-11-15T13:54:35.231Z,7.35
2022-11-15T13:59:59.048Z,8.68
2022-11-15T14:02:31.928Z,7.93
2022-11-15T14:05:03.847Z,6.75
2022-11-15T14:07:31.147Z,7.47
2022-11-15T14:09:57.617Z,8.40
2022-11-15T14:12:53.824Z,8.63
2022-11-15T14:15:34.970Z,8.85
2022-11-15T14:18:02.016Z,10.75
2022-11-15T14:20:36.024Z,8.10
2022-11-15T14:23:05.457Z,11.57
2022-11-15T14:25:32.899Z,11.07
2022-11-15T14:28:29.336Z,10.10
2022-11-15T14:30:58.765Z,11.77
2022-11-15T14:33:30.655Z,11.48
2022-11-15T14:35:59.266Z,9.95
2022-11-15T14:38:26.669Z,11.32
2022-11-15T14:40:54.774Z,14.27
2022-11-15T14:43:21.538Z,10.05
2022-11-15T14:45:48.126Z,9.00
2022-11-15T14:48:14.625Z,9.63
2022-11-15T14:50:41.300Z,16.17
2022-11-15T14:53:12.370Z,7.97
2022-11-15T14:55:38.996Z,13.38
2022-11-15T14:58:08.820Z,7.95
2022-11-15T15:00:37.787Z,7.75
2022-11-15T15:03:05.518Z,11.00
2022-11-15T15:05:38.332Z,8.13
2022-11-15T15:08:06.118Z,9.32
2022-11-15T15:10:41.130Z,7.57
2022-11-15T15:13:17.704Z,7.85
2022-11-15T15:15:44.475Z,10.82
2022-11-15T15:18:12.248Z,13.13
2022-11-15T15:20:41.039Z,9.60
2022-11-15T15:23:16.885Z,8.20
2022-11-15T15:25:44.566Z,8.07
2022-11-15T15:28:10.971Z,8.05
2022-11-15T15:30:37.437Z,8.30
2022-11-15T15:33:04.003Z,9.15
2022-11-15T15:35:33.208Z,11.15
2022-11-15T15:37:59.859Z,8.82
2022-11-15T15:40:28.685Z,6.93
2022-11-15T15:42:55.085Z,9.32
2022-11-15T15:45:21.648Z,11.73
2022-11-15T15:47:50.291Z,9.20
2022-11-15T15:50:28.885Z,8.43
2022-11-15T15:52:57.528Z,10.27
2022-11-15T15:55:24.945Z,11.65
2022-11-15T15:57:51.535Z,9.80
2022-11-15T16:00:19.331Z,7.78
2022-11-15T16:02:45.887Z,8.02
2022-11-15T16:05:13.342Z,8.70
2022-11-15T16:07:41.047Z,6.53
2022-11-15T16:10:31.919Z,13.77
2022-11-15T16:12:59.214Z,8.85
2022-11-15T16:15:28.167Z,8.93
2022-11-15T16:17:59.374Z,9.80
2022-11-15T16:20:38.424Z,7.72
2022-11-15T16:23:10.110Z,8.85
2022-11-15T16:25:45.288Z,8.80
2022-11-15T16:28:19.062Z,9.18
2022-11-15T16:30:45.764Z,10.50
2022-11-15T16:33:12.268Z,12.20
2022-11-15T16:35:38.703Z,8.07
2022-11-15T16:38:05.176Z,8.55
2022-11-15T16:40:34.668Z,9.18
2022-11-15T16:43:03.006Z,8.45
2022-11-15T16:45:29.596Z,8.80
2022-11-15T16:47:56.573Z,7.13
2022-11-15T16:50:28.137Z,7.47
2022-11-15T16:52:59.315Z,9.45
2022-11-15T16:55:28.289Z,11.77
2022-11-15T16:57:55.639Z,9.15
2022-11-15T17:00:22.333Z,7.60
2022-11-15T17:02:50.523Z,11.25
2022-11-15T17:05:20.433Z,10.77
2022-11-15T17:07:55.140Z,9.88
2022-11-15T17:10:23.250Z,8.05
2022-11-15T17:12:50.459Z,8.57
2022-11-15T17:15:16.903Z,11.43
2022-11-15T17:17:43.859Z,9.48
2022-11-15T17:20:18.138Z,9.10
2022-11-15T17:22:45.270Z,8.98
2022-11-15T17:25:11.727Z,7.93
2022-11-15T17:27:38.141Z,8.90
2022-11-15T17:30:05.584Z,7.88
2022-11-15T17:32:31.996Z,9.48
2022-11-15T17:34:58.380Z,10.73
2022-11-15T17:37:24.842Z,11.68
2022-11-15T17:39:51.320Z,13.10
2022-11-15T17:42:17.733Z,12.27
2022-11-15T17:44:44.144Z,16.48
2022-11-15T17:47:10.579Z,10.77
2022-11-15T17:49:39.456Z,11.40
2022-11-15T17:52:06.285Z,15.23
2022-11-15T17:54:32.755Z,8.25
2022-11-15T17:56:59.375Z,9.32
2022-11-15T17:59:25.835Z,9.45
2022-11-15T18:01:53.969Z,14.40
2022-11-15T18:04:20.564Z,11.10
2022-11-15T18:06:47.316Z,8.32
2022-11-15T18:09:13.828Z,9.15
2022-11-15T18:11:42.186Z,8.15
2022-11-15T18:14:13.305Z,7.80
2022-11-15T18:16:40.375Z,9.35
2022-11-15T18:19:13.941Z,9.27
2022-11-15T18:21:57.884Z,9.82
2022-11-15T18:24:38.472Z,9.48
2022-11-15T18:27:06.420Z,7.28
2022-11-15T18:29:35.449Z,7.88
2022-11-15T18:32:04.999Z,10.88
2022-11-15T18:34:34.496Z,14.52
2022-11-15T18:37:02.750Z,8.25
2022-11-15T18:39:29.469Z,7.13
2022-11-15T18:41:55.923Z,7.53
2022-11-15T18:44:22.345Z,8.48
2022-11-15T18:46:49.063Z,6.70
2022-11-15T18:49:20.248Z,7.93
2022-11-15T18:51:47.740Z,6.97
2022-11-15T18:54:16.010Z,8.15
2022-11-15T18:56:47.114Z,5.78
2022-11-15T18:59:14.043Z,6.43
2022-11-15T19:01:43.083Z,6.22
2022-11-15T19:04:18.416Z,7.28
2022-11-15T19:06:47.021Z,9.05
2022-11-15T19:09:16.077Z,8.57
2022-11-15T19:11:44.110Z,6.65
2022-11-15T19:14:12.624Z,10.25
2022-11-15T19:16:41.711Z,8.85
2022-11-15T19:19:13.301Z,10.48
2022-11-15T19:21:39.762Z,16.10
2022-11-15T19:24:06.428Z,10.13
2022-11-15T19:26:33.282Z,9.18
2022-11-15T19:29:02.170Z,9.70
2022-11-15T19:31:31.154Z,10.55
2022-11-15T19:34:04.257Z,8.15
2022-11-15T19:36:33.924Z,10.23
2022-11-15T19:39:05.265Z,13.45
2022-11-15T19:41:32.215Z,9.63
2022-11-15T19:43:58.706Z,11.00
2022-11-15T19:46:26.778Z,9.13
2022-11-15T19:48:53.360Z,10.18
2022-11-15T19:51:24.984Z,8.77
2022-11-15T19:53:57.098Z,9.20
2022-11-15T19:56:23.866Z,11.65
2022-11-15T19:58:54.858Z,12.50
2022-11-15T20:01:26.469Z,15.88
2022-11-15T20:03:55.104Z,17.27
2022-11-15T20:06:24.812Z,12.65
2022-11-15T20:08:51.972Z,12.25
2022-11-15T20:11:19.377Z,9.80
2022-11-15T20:13:46.350Z,12.00
2022-11-15T20:16:20.952Z,10.40
2022-11-15T20:18:48.683Z,10.82
2022-11-15T20:21:15.903Z,9.85
2022-11-15T20:23:43.062Z,11.05
2022-11-15T20:26:11.404Z,10.13
2022-11-15T20:28:39.729Z,10.70
2022-11-15T20:31:07.197Z,13.13
2022-11-15T20:33:34.101Z,12.57
2022-11-15T20:36:09.923Z,10.38
2022-11-15T20:38:37.384Z,9.93
2022-11-15T20:41:03.973Z,10.50
2022-11-15T20:43:30.427Z,9.88
2022-11-15T20:45:56.863Z,12.23
2022-11-15T20:48:23.340Z,13.07
2022-11-15T20:50:49.819Z,10.25
2022-11-15T20:53:20.180Z,9.55
2022-11-15T20:55:49.553Z,13.13
2022-11-15T20:58:17.269Z,12.43
2022-11-15T21:00:45.672Z,11.30
2022-11-15T21:03:13.256Z,12.43
2022-11-15T21:05:43.134Z,11.23
2022-11-15T21:08:11.355Z,10.70
2022-11-15T21:10:56.604Z,14.13
2022-11-15T21:13:23.035Z,11.45
2022-11-15T21:15:49.541Z,13.95
2022-11-15T21:18:16.405Z,16.17
2022-11-15T21:20:43.055Z,13.15
2022-11-15T21:23:09.479Z,15.13
2022-11-15T21:25:36.087Z,12.40
2022-11-15T21:28:02.992Z,12.85
2022-11-15T21:30:29.861Z,13.60
2022-11-15T21:32:56.329Z,14.23
2022-11-15T21:35:23.820Z,12.82
2022-11-15T21:37:56.080Z,11.90
2022-11-15T21:40:23.405Z,14.15
2022-11-15T21:42:49.891Z,13.07
2022-11-15T21:45:16.647Z,12.00
2022-11-15T21:47:46.009Z,13.05
2022-11-15T21:50:12.650Z,15.20
2022-11-15T21:52:39.065Z,15.18
2022-11-15T21:55:05.866Z,15.43
2022-11-15T21:57:32.324Z,14.57
2022-11-15T22:00:17.133Z,16.80
2022-11-15T22:02:43.546Z,15.00
2022-11-15T22:05:09.963Z,17.27
2022-11-15T22:07:36.467Z,18.02
2022-11-15T22:10:03.052Z,18.45
2022-11-15T22:12:29.887Z,14.23
2022-11-15T22:14:57.022Z,20.17
2022-11-15T22:17:24.571Z,17.77
2022-11-15T22:19:52.893Z,15.10
2022-11-15T22:22:19.594Z,16.30
2022-11-15T22:24:46.072Z,16.20
2022-11-15T22:27:12.467Z,14.73
2022-11-15T22:29:38.874Z,17.92
2022-11-15T22:32:05.279Z,18.75
2022-11-15T22:34:31.724Z,19.05
2022-11-15T22:37:19.623Z,16.45
2022-11-15T22:39:44.522Z,16.73
2022-11-15T22:42:11.015Z,19.13
2022-11-15T22:44:37.429Z,16.40
2022-11-15T22:47:03.878Z,17.40
2022-11-15T22:49:30.328Z,16.33
2022-11-15T22:51:56.747Z,18.88
2022-11-15T22:54:23.154Z,19.75
2022-11-15T22:56:49.546Z,16.48
2022-11-15T22:59:15.940Z,15.82
2022-11-15T23:01:42.957Z,16.52
2022-11-15T23:04:09.378Z,19.10
2022-11-15T23:06:35.823Z,20.90
2022-11-15T23:09:02.223Z,16.13
2022-11-15T23:11:47.277Z,17.98
2022-11-15T23:14:13.734Z,15.60
2022-11-15T23:16:40.549Z,15.98
2022-11-15T23:19:09.271Z,16.00
2022-11-15T23:22:05.562Z,16.42
2022-11-15T23:24:32.903Z,16.38
2022-11-15T23:27:02.142Z,16.73
2022-11-15T23:29:29.869Z,16.80
2022-11-15T23:32:16.089Z,15.60
2022-11-15T23:34:44.989Z,15.18
2022-11-15T23:37:13.907Z,17.35
2022-11-15T23:39:40.638Z,15.48
2022-11-15T23:42:09.415Z,15.68
2022-11-15T23:44:36.626Z,17.42
2022-11-15T23:47:03.020Z,15.45
2022-11-15T23:49:29.437Z,18.23
2022-11-15T23:51:55.832Z,13.38
2022-11-15T23:54:22.285Z,15.88
2022-11-15T23:56:48.685Z,17.73
2022-11-15T23:59:15.144Z,15.52
